Arlington, Minnesota
Current Conditions -  °F | °C
As of 9:34 PM on Saturday 24 Jan 2015 (Local Time) from KGYL Reporting Station
Overcast Overcast  
Wind Chill: 33°   Ceiling: 9000
Heat Index: 33°   Visibility: 10mi
Dew Point: 33°   Wind: 0mph
Humidity: 99%   Direction: NA
Pressure: 29.6"   Gusts: NA
Location:  44.61°N, 94.08°W
Report Text: KGYL 250334Z AUTO 00000KT 10SM SCT023 OVC090 01/01 A2960 RMK AO2 T00060005
Loading
Personal Weather Stations






























Interactive Weather Map New forecast layout! Learn more

10-Day Weather Forecast

Advertisements
Track Severe Weather on mobile